Time;durP1;ratioP1;P1;durP2;ratioP2;P2;SDS_P1;SDS_P2;PMS_P1;PMS_P2;Temp;Humidity;BMP_temperature;BMP_pressure;BME280_temperature;BME280_humidity;BME280_pressure;Samples;Min_cycle;Max_cycle;Signal;HPM_P1;HPM_P2
2023/05/16 00:00:05;;;;;;;27.80;22.27;;;;;;;13.70;94.88;93145.81;524034;28;1061;-59
2023/05/16 00:00:22;;;;;;;27.50;21.70;;;;;;;13.73;94.98;93155.72;523990;28;855;-59
2023/05/16 00:00:37;;;;;;;25.90;21.77;;;;;;;13.75;94.65;93155.16;524007;28;902;-59
2023/05/16 00:00:53;;;;;;;25.43;22.53;;;;;;;13.76;94.64;93145.53;523860;28;888;-59
2023/05/16 00:01:09;;;;;;;26.15;22.88;;;;;;;13.67;94.71;93138.63;523890;28;793;-60
2023/05/16 00:01:28;;;;;;;27.47;22.57;;;;;;;13.76;94.46;93148.28;523895;28;868;-59
2023/05/16 00:01:44;;;;;;;25.63;22.35;;;;;;;13.78;94.51;93148.44;523834;28;917;-59
2023/05/16 00:01:59;;;;;;;25.27;22.40;;;;;;;13.79;94.37;93147.91;523910;28;800;-59
2023/05/16 00:02:15;;;;;;;25.77;22.17;;;;;;;13.80;94.30;93154.91;523820;28;836;-60
2023/05/16 00:02:30;;;;;;;25.30;22.60;;;;;;;13.80;94.26;93145.84;523862;28;875;-59
2023/05/16 00:02:46;;;;;;;27.17;22.70;;;;;;;13.82;94.16;93143.25;523846;28;869;-59
2023/05/16 00:03:03;;;;;;;29.58;22.33;;;;;;;13.73;94.11;93135.59;524031;28;924;-59
2023/05/16 00:03:19;;;;;;;27.98;22.65;;;;;;;13.84;94.08;93146.16;524009;28;1017;-59
2023/05/16 00:03:36;;;;;;;25.25;22.10;;;;;;;13.85;94.02;93139.28;524013;28;885;-59
2023/05/16 00:03:52;;;;;;;25.30;22.13;;;;;;;13.86;93.87;93146.31;523971;28;934;-59
2023/05/16 00:04:07;;;;;;;25.73;22.27;;;;;;;13.86;93.75;93138.72;524040;28;847;-59
2023/05/16 00:04:23;;;;;;;26.70;21.85;;;;;;;13.84;93.59;93144.09;524054;28;800;-59
2023/05/16 00:04:38;;;;;;;26.98;21.58;;;;;;;13.84;93.65;93143.38;524050;28;832;-59
2023/05/16 00:04:54;;;;;;;28.87;21.97;;;;;;;13.78;93.40;93146.41;524020;28;760;-59
2023/05/16 00:05:13;;;;;;;30.08;22.83;;;;;;;13.76;93.60;93146.25;523983;28;931;-59
2023/05/16 00:05:28;;;;;;;29.73;23.00;;;;;;;13.77;93.60;93147.00;523974;28;879;-60
2023/05/16 00:05:44;;;;;;;30.38;22.27;;;;;;;13.77;93.68;93139.41;523960;28;859;-59
2023/05/16 00:06:01;;;;;;;30.67;21.88;;;;;;;13.80;93.67;93145.84;525961;28;1148;-59
2023/05/16 00:06:16;;;;;;;28.98;22.38;;;;;;;13.81;93.62;93144.53;526154;28;852;-59
2023/05/16 00:06:32;;;;;;;25.33;22.42;;;;;;;13.80;93.37;93148.59;526108;28;1071;-59
2023/05/16 00:06:47;;;;;;;26.37;22.90;;;;;;;13.82;93.34;93148.78;526083;28;890;-59
2023/05/16 00:07:03;;;;;;;29.58;23.10;;;;;;;13.76;93.43;93148.28;526036;28;868;-59
2023/05/16 00:07:18;;;;;;;29.67;21.77;;;;;;;13.71;93.64;93150.03;526096;28;805;-60
2023/05/16 00:07:33;;;;;;;26.00;20.63;;;;;;;13.68;93.55;93143.63;526122;28;840;-60
2023/05/16 00:07:49;;;;;;;25.27;20.63;;;;;;;13.65;93.93;93147.53;526063;28;1133;-60
2023/05/16 00:08:04;;;;;;;26.10;21.30;;;;;;;13.65;93.95;93150.31;526098;28;841;-59
2023/05/16 00:08:20;;;;;;;25.35;21.63;;;;;;;13.64;93.92;93139.78;526085;28;896;-60
2023/05/16 00:08:35;;;;;;;24.37;20.33;;;;;;;13.65;94.05;93141.25;526186;28;768;-60
2023/05/16 00:08:51;;;;;;;23.70;19.80;;;;;;;13.66;94.07;93143.44;526063;28;765;-60
2023/05/16 00:09:06;;;;;;;25.92;20.33;;;;;;;13.65;94.04;93139.22;526110;28;905;-60
2023/05/16 00:09:22;;;;;;;26.33;20.37;;;;;;;13.68;94.07;93143.63;526145;28;799;-60
2023/05/16 00:09:37;;;;;;;26.33;20.70;;;;;;;13.68;94.04;93140.09;526050;28;902;-60
2023/05/16 00:09:52;;;;;;;26.93;20.90;;;;;;;13.71;94.12;93144.47;526047;28;939;-59
2023/05/16 00:10:08;;;;;;;26.15;21.83;;;;;;;13.72;93.96;93140.41;526041;28;1506;-60
2023/05/16 00:10:23;;;;;;;26.23;22.33;;;;;;;13.64;93.94;93139.78;526110;28;806;-59
2023/05/16 00:10:39;;;;;;;26.23;21.40;;;;;;;13.61;94.04;93141.66;526027;28;946;-59
2023/05/16 00:10:54;;;;;;;25.93;21.23;;;;;;;13.61;94.21;93138.91;525965;28;1930;-60
2023/05/16 00:11:10;;;;;;;24.50;20.90;;;;;;;13.60;94.15;93142.97;526088;28;844;-60
2023/05/16 00:11:25;;;;;;;23.83;19.70;;;;;;;13.61;94.21;93144.44;526114;28;882;-60
2023/05/16 00:11:41;;;;;;;24.67;19.93;;;;;;;13.62;94.12;93145.19;526066;28;931;-60
2023/05/16 00:11:56;;;;;;;24.55;20.15;;;;;;;13.61;94.26;93135.38;526053;28;891;-60
2023/05/16 00:12:12;;;;;;;23.67;19.87;;;;;;;13.61;94.28;93135.38;526082;28;915;-60
2023/05/16 00:12:28;;;;;;;21.67;19.35;;;;;;;13.63;94.17;93132.75;526064;28;1575;-60
2023/05/16 00:12:43;;;;;;;20.88;18.38;;;;;;;13.62;94.26;93134.09;526100;28;868;-60
2023/05/16 00:13:00;;;;;;;21.47;19.07;;;;;;;13.63;94.31;93135.53;526082;28;812;-60
2023/05/16 00:13:21;;;;;;;22.27;19.92;;;;;;;13.63;94.17;93130.00;526036;28;839;-60
2023/05/16 00:13:36;;;;;;;23.60;19.90;;;;;;;13.63;94.26;93138.31;526170;28;825;-60
2023/05/16 00:13:52;;;;;;;25.37;20.33;;;;;;;13.59;94.22;93127.66;526018;28;796;-60
2023/05/16 00:14:07;;;;;;;25.55;20.38;;;;;;;13.58;94.28;93131.72;526062;28;804;-60
2023/05/16 00:14:25;;;;;;;23.97;20.87;;;;;;;13.60;94.39;93145.75;526131;28;852;-60
2023/05/16 00:14:40;;;;;;;24.33;21.70;;;;;;;13.60;94.28;93131.88;526061;28;922;-60
2023/05/16 00:14:56;;;;;;;24.05;21.23;;;;;;;13.62;94.31;93136.88;526070;28;875;-59
2023/05/16 00:15:13;;;;;;;24.73;20.58;;;;;;;13.61;94.42;93130.56;525991;28;1135;-60
2023/05/16 00:15:28;;;;;;;24.42;21.05;;;;;;;13.58;94.29;93123.41;526026;28;941;-60
2023/05/16 00:15:44;;;;;;;24.65;20.50;;;;;;;13.57;94.35;93121.19;526087;28;892;-60
2023/05/16 00:16:01;;;;;;;26.25;21.35;;;;;;;13.54;94.43;93125.13;526082;28;841;-60
2023/05/16 00:16:16;;;;;;;27.52;21.02;;;;;;;13.51;94.62;93129.06;526099;28;942;-60
2023/05/16 00:16:32;;;;;;;27.17;20.00;;;;;;;13.49;94.71;93128.91;526023;28;861;-60
2023/05/16 00:16:47;;;;;;;24.07;19.57;;;;;;;13.42;94.90;93122.16;525478;28;1235;-61
2023/05/16 00:17:10;;;;;;;21.58;18.92;;;;;;;13.35;95.31;93125.75;523964;28;789;-60
2023/05/16 00:17:27;;;;;;;22.60;19.88;;;;;;;13.34;95.80;93124.28;524069;28;821;-60
2023/05/16 00:17:46;;;;;;;26.63;20.88;;;;;;;13.33;95.99;93122.09;523953;28;946;-60
2023/05/16 00:18:01;;;;;;;25.85;20.70;;;;;;;13.32;96.09;93132.44;523975;28;869;-61
2023/05/16 00:18:18;;;;;;;25.98;21.17;;;;;;;13.35;96.21;93130.56;523971;28;846;-60
2023/05/16 00:18:36;;;;;;;25.10;21.17;;;;;;;13.36;96.23;93126.50;524038;28;821;-60
2023/05/16 00:18:52;;;;;;;24.70;20.15;;;;;;;13.40;96.25;93124.78;523882;28;942;-60
2023/05/16 00:19:07;;;;;;;25.97;21.23;;;;;;;13.43;96.22;93131.94;523997;28;834;-60
2023/05/16 00:19:22;;;;;;;25.55;21.50;;;;;;;13.42;96.07;93127.69;524019;28;859;-60
2023/05/16 00:19:38;;;;;;;25.27;20.90;;;;;;;13.45;95.92;93128.56;523988;28;889;-60
2023/05/16 00:19:57;;;;;;;24.27;20.63;;;;;;;13.47;95.85;93129.47;523995;28;956;-60
2023/05/16 00:20:13;;;;;;;22.70;20.17;;;;;;;13.51;95.78;93127.00;523734;28;882;-60
2023/05/16 00:20:28;;;;;;;24.65;21.00;;;;;;;13.51;95.69;93131.84;523757;28;809;-60
2023/05/16 00:20:44;;;;;;;25.10;21.80;;;;;;;13.52;95.57;93139.56;523790;28;855;-60
2023/05/16 00:21:00;;;;;;;26.08;21.70;;;;;;;13.52;95.52;93127.75;523767;28;873;-59
2023/05/16 00:21:16;;;;;;;27.67;22.63;;;;;;;13.55;95.45;93132.16;523983;28;629;-60
2023/05/16 00:21:32;;;;;;;26.30;22.95;;;;;;;13.55;95.32;93130.09;523834;28;785;-60
2023/05/16 00:21:47;;;;;;;25.17;21.73;;;;;;;13.56;95.19;93131.56;523825;28;1355;-60
2023/05/16 00:22:03;;;;;;;26.80;21.97;;;;;;;13.53;95.19;93124.41;523780;28;1195;-60
2023/05/16 00:22:18;;;;;;;26.35;22.33;;;;;;;13.58;95.16;93134.50;523861;28;868;-60
2023/05/16 00:22:33;;;;;;;25.40;22.10;;;;;;;13.59;95.00;93130.41;523799;28;848;-60
2023/05/16 00:22:49;;;;;;;26.85;22.75;;;;;;;13.58;94.99;93134.50;523784;28;860;-60
2023/05/16 00:23:05;;;;;;;27.35;23.23;;;;;;;13.61;94.92;93129.84;523797;28;913;-59
2023/05/16 00:23:20;;;;;;;27.17;23.70;;;;;;;13.58;94.82;93122.66;523874;28;829;-60
2023/05/16 00:23:36;;;;;;;26.08;22.52;;;;;;;13.61;94.79;93132.59;523963;28;826;-59
2023/05/16 00:23:51;;;;;;;24.53;21.20;;;;;;;13.62;94.77;93136.88;523967;28;829;-60
2023/05/16 00:24:07;;;;;;;24.80;21.90;;;;;;;13.62;94.62;93134.81;523930;28;762;-59
2023/05/16 00:24:23;;;;;;;27.53;22.50;;;;;;;13.60;94.54;93133.91;523966;28;804;-60
2023/05/16 00:24:38;;;;;;;27.48;23.13;;;;;;;13.59;94.60;93132.44;524058;28;913;-60
2023/05/16 00:24:53;;;;;;;25.43;22.27;;;;;;;13.57;94.54;93129.53;523932;28;1516;-60
2023/05/16 00:25:09;;;;;;;24.00;20.97;;;;;;;13.57;94.66;93133.03;523990;28;837;-60
2023/05/16 00:25:24;;;;;;;23.88;20.83;;;;;;;13.50;94.60;93133.13;523916;28;903;-61
2023/05/16 00:25:40;;;;;;;25.33;21.53;;;;;;;13.34;95.03;93132.59;523932;28;1099;-61
2023/05/16 00:25:55;;;;;;;27.17;21.90;;;;;;;13.23;95.67;93130.34;524037;28;777;-60
2023/05/16 00:26:10;;;;;;;29.03;22.27;;;;;;;13.20;96.23;93130.75;523992;28;792;-59
2023/05/16 00:26:26;;;;;;;29.17;23.00;;;;;;;13.17;96.53;93132.63;524034;28;912;-60
2023/05/16 00:26:41;;;;;;;27.30;23.17;;;;;;;13.18;96.84;93128.56;523948;28;880;-59
2023/05/16 00:26:57;;;;;;;30.70;23.97;;;;;;;13.21;96.94;93132.94;524008;28;896;-59
2023/05/16 00:27:12;;;;;;;32.55;24.80;;;;;;;13.25;97.06;93130.53;523938;28;828;-60
2023/05/16 00:27:28;;;;;;;28.70;23.93;;;;;;;13.25;96.99;93127.75;524055;28;821;-59
2023/05/16 00:27:43;;;;;;;30.17;23.20;;;;;;;13.32;96.99;93132.44;523978;28;887;-60
2023/05/16 00:27:58;;;;;;;30.20;23.80;;;;;;;13.35;96.90;93130.56;523983;28;955;-60
2023/05/16 00:28:14;;;;;;;28.27;24.13;;;;;;;13.36;96.58;93129.97;524059;28;840;-60
2023/05/16 00:28:29;;;;;;;28.98;24.83;;;;;;;13.38;96.69;93132.19;524002;28;1524;-60
2023/05/16 00:28:45;;;;;;;29.73;25.20;;;;;;;13.38;96.50;93127.34;523927;28;1484;-61
2023/05/16 00:29:01;;;;;;;28.53;24.93;;;;;;;13.37;96.35;93128.69;523943;28;773;-60
2023/05/16 00:29:16;;;;;;;27.50;24.50;;;;;;;13.40;96.23;93132.34;524058;28;888;-59
2023/05/16 00:29:33;;;;;;;28.45;23.98;;;;;;;13.40;96.22;93135.13;523919;28;828;-60
2023/05/16 00:29:49;;;;;;;27.70;23.92;;;;;;;13.42;96.20;93133.25;523929;28;859;-59
2023/05/16 00:30:06;;;;;;;26.95;23.13;;;;;;;13.44;96.03;93130.63;523971;28;888;-59
2023/05/16 00:30:21;;;;;;;29.73;22.75;;;;;;;13.46;95.97;93130.03;523924;28;816;-59
2023/05/16 00:30:37;;;;;;;29.50;23.05;;;;;;;13.48;95.81;93130.19;523998;28;780;-59
2023/05/16 00:30:52;;;;;;;28.77;23.53;;;;;;;13.52;95.66;93133.28;523565;28;1968;-59
2023/05/16 00:31:07;;;;;;;31.65;24.02;;;;;;;13.53;95.45;93126.44;523901;28;809;-60
2023/05/16 00:31:23;;;;;;;32.53;24.27;;;;;;;13.51;95.33;93124.22;523997;28;867;-60
2023/05/16 00:31:38;;;;;;;30.80;23.77;;;;;;;13.53;95.23;93134.75;523956;28;1018;-60
2023/05/16 00:31:53;;;;;;;28.60;23.77;;;;;;;13.53;95.13;93132.00;523925;28;903;-60
2023/05/16 00:32:09;;;;;;;28.65;23.88;;;;;;;13.56;95.12;93128.03;523996;28;851;-60
2023/05/16 00:32:24;;;;;;;29.57;24.17;;;;;;;13.55;94.94;93127.34;524011;28;784;-60
2023/05/16 00:32:40;;;;;;;28.80;24.30;;;;;;;13.57;94.78;93130.25;524003;28;790;-60
2023/05/16 00:32:55;;;;;;;28.80;24.03;;;;;;;13.58;94.72;93131.72;524001;28;850;-60
2023/05/16 00:33:10;;;;;;;28.03;24.20;;;;;;;13.58;94.60;93131.72;523911;28;808;-60
2023/05/16 00:33:26;;;;;;;26.83;23.95;;;;;;;13.56;94.44;93134.34;523998;28;843;-60
2023/05/16 00:33:41;;;;;;;29.00;23.83;;;;;;;13.54;94.36;93134.19;524113;28;1790;-60
2023/05/16 00:33:56;;;;;;;31.20;24.57;;;;;;;13.47;94.53;93129.47;526121;28;836;-59
2023/05/16 00:34:12;;;;;;;29.67;25.45;;;;;;;13.44;94.65;93133.41;526020;28;844;-60
2023/05/16 00:34:27;;;;;;;29.57;25.57;;;;;;;13.36;94.85;93124.44;526052;28;914;-60
2023/05/16 00:34:42;;;;;;;31.00;25.20;;;;;;;13.31;95.02;93128.22;526086;28;801;-60
2023/05/16 00:34:58;;;;;;;31.77;24.65;;;;;;;13.28;95.34;93125.84;525985;28;1483;-59
2023/05/16 00:35:13;;;;;;;32.60;27.40;;;;;;;13.29;95.50;93128.06;526051;28;810;-60
2023/05/16 00:35:29;;;;;;;35.70;30.03;;;;;;;13.33;95.74;93127.63;526022;28;888;-60
2023/05/16 00:35:44;;;;;;;35.35;29.17;;;;;;;13.35;95.65;93125.00;526005;28;900;-60
2023/05/16 00:35:59;;;;;;;35.03;28.67;;;;;;;13.32;95.81;93118.56;526057;28;836;-60
2023/05/16 00:36:15;;;;;;;33.10;26.77;;;;;;;13.32;95.81;93126.91;526100;28;819;-59
2023/05/16 00:36:30;;;;;;;30.13;25.87;;;;;;;13.33;95.82;93124.84;525963;28;1246;-59
2023/05/16 00:36:45;;;;;;;31.00;26.23;;;;;;;13.33;95.79;93128.38;526050;28;867;-60
2023/05/16 00:37:01;;;;;;;30.40;25.58;;;;;;;13.36;95.85;93129.28;525996;28;792;-60
2023/05/16 00:37:16;;;;;;;31.40;25.10;;;;;;;13.38;95.73;93124.59;526081;28;852;-60
2023/05/16 00:37:32;;;;;;;31.43;25.60;;;;;;;13.40;95.69;93127.53;526053;28;871;-59
2023/05/16 00:37:47;;;;;;;31.35;25.83;;;;;;;13.43;95.54;93125.63;526091;28;885;-60
2023/05/16 00:38:02;;;;;;;32.63;25.50;;;;;;;13.42;95.46;93124.94;526080;28;875;-60
2023/05/16 00:38:18;;;;;;;32.63;25.50;;;;;;;13.44;95.36;93118.78;526142;28;760;-60
2023/05/16 00:38:34;;;;;;;31.75;25.45;;;;;;;13.46;95.25;93122.47;526098;28;803;-60
2023/05/16 00:38:49;;;;;;;32.03;25.77;;;;;;;13.37;95.18;93114.09;525872;28;2348;-60
2023/05/16 00:39:05;;;;;;;33.67;25.77;;;;;;;13.48;95.09;93124.66;523869;28;1181;-59
2023/05/16 00:39:20;;;;;;;31.40;25.92;;;;;;;13.50;94.97;93124.81;523963;28;860;-60
2023/05/16 00:39:35;;;;;;;31.27;26.13;;;;;;;13.51;94.77;93129.06;523926;28;879;-60
2023/05/16 00:39:51;;;;;;;30.10;25.40;;;;;;;13.53;94.62;93123.66;523909;28;832;-60
2023/05/16 00:40:07;;;;;;;29.48;25.15;;;;;;;13.53;94.56;93121.63;523996;28;825;-60
2023/05/16 00:40:22;;;;;;;29.05;25.00;;;;;;;13.55;94.41;93123.81;523955;28;1033;-60
2023/05/16 00:40:38;;;;;;;28.47;25.17;;;;;;;13.55;94.18;93121.06;523867;28;923;-60
2023/05/16 00:40:53;;;;;;;28.58;25.48;;;;;;;13.56;94.19;93122.50;523915;28;877;-60
2023/05/16 00:41:08;;;;;;;29.37;25.03;;;;;;;13.59;94.06;93127.66;523828;28;969;-59
2023/05/16 00:41:25;;;;;;;29.23;24.53;;;;;;;13.57;93.78;93127.50;523960;28;857;-60
2023/05/16 00:41:40;;;;;;;32.35;24.42;;;;;;;13.58;93.68;93126.16;523936;28;872;-59
2023/05/16 00:41:56;;;;;;;31.67;25.42;;;;;;;13.56;93.65;93116.94;524011;28;807;-60
2023/05/16 00:42:11;;;;;;;31.38;26.70;;;;;;;13.56;93.41;93125.28;523888;28;840;-60
2023/05/16 00:42:27;;;;;;;32.60;27.07;;;;;;;13.54;93.31;93119.56;523814;28;770;-60
2023/05/16 00:42:42;;;;;;;30.83;26.67;;;;;;;13.51;93.33;93117.97;523728;28;990;-59
2023/05/16 00:42:58;;;;;;;31.33;26.88;;;;;;;13.54;93.39;93128.63;523748;28;864;-60
2023/05/16 00:43:13;;;;;;;31.60;26.73;;;;;;;13.57;93.26;93118.44;523730;28;900;-60
2023/05/16 00:43:28;;;;;;;29.17;25.42;;;;;;;13.56;93.27;93126.00;523795;28;857;-59
2023/05/16 00:43:44;;;;;;;29.60;25.33;;;;;;;13.56;93.27;93131.56;523804;28;863;-60
2023/05/16 00:43:59;;;;;;;29.43;25.57;;;;;;;13.58;93.20;93122.66;523764;28;889;-60
2023/05/16 00:44:14;;;;;;;28.92;25.23;;;;;;;13.59;93.08;93129.69;523827;28;833;-60
2023/05/16 00:44:30;;;;;;;28.13;24.03;;;;;;;13.56;93.00;93131.56;523993;28;821;-60
2023/05/16 00:44:47;;;;;;;26.80;23.70;;;;;;;13.50;93.00;93128.31;524029;28;867;-60
2023/05/16 00:45:02;;;;;;;27.65;23.90;;;;;;;13.49;93.25;93128.91;523822;28;944;-61
2023/05/16 00:45:18;;;;;;;29.85;24.13;;;;;;;13.47;93.28;93126.69;523936;28;1061;-60
2023/05/16 00:45:33;;;;;;;28.70;23.30;;;;;;;13.46;93.40;93130.78;523925;28;861;-60
2023/05/16 00:45:48;;;;;;;26.33;22.40;;;;;;;13.44;93.54;93122.31;523869;28;945;-59
2023/05/16 00:46:04;;;;;;;26.23;22.53;;;;;;;13.46;93.64;93130.03;523965;28;852;-60
2023/05/16 00:46:19;;;;;;;29.27;22.03;;;;;;;13.47;93.71;93123.19;523982;28;888;-59
2023/05/16 00:46:35;;;;;;;28.23;21.63;;;;;;;13.47;93.87;93118.38;523984;28;826;-60
2023/05/16 00:46:51;;;;;;;24.83;21.80;;;;;;;13.43;93.93;93120.09;523775;28;1360;-60
2023/05/16 00:47:07;;;;;;;26.73;22.05;;;;;;;13.31;94.16;93121.94;523982;28;800;-61
2023/05/16 00:47:22;;;;;;;28.30;22.02;;;;;;;13.24;94.59;93119.97;523964;28;851;-60
2023/05/16 00:47:37;;;;;;;25.73;21.23;;;;;;;13.23;95.03;93124.06;523982;28;1047;-60
2023/05/16 00:47:53;;;;;;;23.20;20.77;;;;;;;13.23;95.36;93116.47;523905;28;951;-60
2023/05/16 00:48:09;;;;;;;24.17;21.57;;;;;;;13.26;95.38;93120.88;523897;28;918;-60
2023/05/16 00:48:25;;;;;;;25.20;21.40;;;;;;;13.25;95.62;93113.88;523782;28;1177;-59
2023/05/16 00:48:40;;;;;;;24.30;20.60;;;;;;;13.28;95.70;93128.63;521702;28;900;-60
2023/05/16 00:48:55;;;;;;;24.57;21.27;;;;;;;13.27;95.75;93121.63;521673;28;931;-60
2023/05/16 00:49:11;;;;;;;27.08;22.52;;;;;;;13.29;95.79;93124.53;521691;28;894;-59
2023/05/16 00:49:26;;;;;;;28.03;23.20;;;;;;;13.26;95.88;93115.34;521782;28;780;-59
2023/05/16 00:49:42;;;;;;;26.65;22.90;;;;;;;13.30;95.88;93115.66;519614;28;885;-60
2023/05/16 00:49:58;;;;;;;30.53;23.83;;;;;;;13.29;95.76;93122.50;519746;28;741;-61
2023/05/16 00:50:13;;;;;;;29.70;23.25;;;;;;;13.26;95.83;93120.13;520072;28;777;-60
2023/05/16 00:50:28;;;;;;;25.83;22.73;;;;;;;13.20;95.94;93120.41;522104;28;1018;-60
2023/05/16 00:50:44;;;;;;;25.90;22.93;;;;;;;13.21;96.09;93121.16;521576;28;1910;-60
2023/05/16 00:51:00;;;;;;;25.98;23.05;;;;;;;13.23;95.91;93129.63;521717;28;856;-60
2023/05/16 00:51:16;;;;;;;25.92;23.13;;;;;;;13.16;96.33;93114.53;521675;28;935;-60
2023/05/16 00:51:32;;;;;;;25.75;22.98;;;;;;;13.28;96.24;93123.06;522298;28;864;-60
2023/05/16 00:51:47;;;;;;;25.38;22.67;;;;;;;13.31;96.15;93127.47;523732;28;884;-59
2023/05/16 00:52:03;;;;;;;25.05;22.35;;;;;;;13.33;96.14;93119.31;523789;28;946;-60
2023/05/16 00:52:19;;;;;;;24.53;21.87;;;;;;;13.34;96.11;93124.28;523774;28;756;-60
2023/05/16 00:52:35;;;;;;;23.98;21.48;;;;;;;13.34;95.81;93118.03;522452;28;848;-60
2023/05/16 00:52:50;;;;;;;24.75;22.13;;;;;;;13.35;95.78;93114.66;523759;28;793;-60
2023/05/16 00:53:05;;;;;;;28.20;23.27;;;;;;;13.37;95.68;93122.41;521661;28;856;-60
2023/05/16 00:53:22;;;;;;;29.43;24.00;;;;;;;13.35;95.69;93117.44;519592;28;860;-60
2023/05/16 00:53:38;;;;;;;28.95;24.08;;;;;;;13.38;95.59;93126.66;517588;28;892;-59
2023/05/16 00:53:54;;;;;;;28.40;24.02;;;;;;;13.38;95.44;93118.31;517570;28;841;-60
2023/05/16 00:54:11;;;;;;;26.95;23.55;;;;;;;13.39;95.35;93123.28;517682;28;869;-60
2023/05/16 00:54:28;;;;;;;27.17;22.52;;;;;;;13.40;95.21;93122.00;516339;28;971;-60
2023/05/16 00:54:43;;;;;;;25.90;22.20;;;;;;;13.41;95.14;93129.00;517616;28;919;-60
2023/05/16 00:54:59;;;;;;;25.85;21.35;;;;;;;13.43;95.12;93122.88;518570;28;927;-60
2023/05/16 00:55:14;;;;;;;26.87;21.00;;;;;;;13.43;95.01;93126.38;520594;28;891;-60
2023/05/16 00:55:31;;;;;;;25.40;21.42;;;;;;;13.43;94.92;93125.63;522544;28;939;-60
2023/05/16 00:55:46;;;;;;;27.55;21.95;;;;;;;13.41;94.88;93120.69;521592;28;921;-59
2023/05/16 00:56:02;;;;;;;30.43;22.33;;;;;;;13.43;94.88;93126.38;519695;28;840;-60
2023/05/16 00:56:17;;;;;;;28.73;22.57;;;;;;;13.44;94.84;93127.84;520399;28;1090;-60
2023/05/16 00:56:33;;;;;;;26.30;22.27;;;;;;;13.46;94.78;93124.50;521684;28;877;-60
2023/05/16 00:56:49;;;;;;;28.50;22.08;;;;;;;13.46;94.81;93125.25;521684;28;848;-59
2023/05/16 00:57:05;;;;;;;31.50;21.93;;;;;;;13.41;94.69;93115.13;521618;28;876;-60
2023/05/16 00:57:21;;;;;;;29.73;22.77;;;;;;;13.44;94.56;93125.09;521692;28;842;-60
2023/05/16 00:57:37;;;;;;;26.97;22.47;;;;;;;13.43;94.53;93126.38;521778;28;782;-59
2023/05/16 00:57:52;;;;;;;28.98;22.05;;;;;;;13.45;94.49;93132.06;522331;28;852;-60
2023/05/16 00:58:08;;;;;;;30.08;23.25;;;;;;;13.43;94.61;93126.38;523761;28;1113;-60
2023/05/16 00:58:24;;;;;;;27.00;23.27;;;;;;;13.47;94.59;93131.53;521712;28;943;-60
2023/05/16 00:58:39;;;;;;;24.90;22.23;;;;;;;13.46;94.61;93130.78;521709;28;1057;-60
2023/05/16 00:58:55;;;;;;;25.42;21.92;;;;;;;13.46;94.71;93124.50;519625;28;876;-60
2023/05/16 00:59:11;;;;;;;26.30;22.30;;;;;;;13.46;94.40;93136.34;520208;28;860;-60
2023/05/16 00:59:26;;;;;;;25.43;22.63;;;;;;;13.46;94.32;93128.00;521747;28;821;-60
2023/05/16 00:59:43;;;;;;;26.67;22.42;;;;;;;13.46;94.52;93130.78;521649;28;1144;-59
2023/05/16 00:59:58;;;;;;;27.70;22.17;;;;;;;13.46;94.38;93125.25;521700;28;875;-60
2023/05/16 01:00:14;;;;;;;26.85;21.98;;;;;;;13.46;94.38;93122.47;522285;28;1530;-60
2023/05/16 01:00:30;;;;;;;26.15;21.52;;;;;;;13.48;94.39;93127.44;521749;28;816;-60
2023/05/16 01:00:46;;;;;;;25.80;22.07;;;;;;;13.49;94.38;93126.13;522283;28;853;-60
2023/05/16 01:01:03;;;;;;;26.42;22.20;;;;;;;13.52;94.31;93138.84;525790;28;920;-59
2023/05/16 01:01:22;;;;;;;27.88;22.13;;;;;;;13.49;94.31;93128.91;523812;28;885;-60
2023/05/16 01:01:38;;;;;;;27.88;22.08;;;;;;;13.46;94.15;93121.72;523832;28;806;-59
2023/05/16 01:01:54;;;;;;;27.77;21.55;;;;;;;13.48;94.25;93128.16;521687;28;1045;-59
2023/05/16 01:02:10;;;;;;;26.67;21.25;;;;;;;13.51;94.27;93132.53;521711;28;856;-59
2023/05/16 01:02:27;;;;;;;25.93;20.67;;;;;;;13.42;94.13;93110.31;521015;28;861;-60
2023/05/16 01:02:43;;;;;;;24.90;20.58;;;;;;;13.54;94.18;93125.13;521657;28;1025;-60
2023/05/16 01:02:59;;;;;;;23.87;21.20;;;;;;;13.53;94.03;93132.72;520087;28;894;-59
2023/05/16 01:03:14;;;;;;;26.33;21.92;;;;;;;13.52;93.91;93127.75;521191;28;884;-61
2023/05/16 01:03:30;;;;;;;28.33;22.30;;;;;;;13.44;93.75;93122.31;521761;28;825;-61
2023/05/16 01:03:45;;;;;;;27.08;22.10;;;;;;;13.34;93.95;93129.81;522645;28;785;-60
2023/05/16 01:04:01;;;;;;;24.83;21.55;;;;;;;13.26;94.30;93123.66;521682;28;887;-60
2023/05/16 01:04:17;;;;;;;23.97;21.37;;;;;;;13.25;94.68;93127.00;520410;28;1538;-60
2023/05/16 01:04:32;;;;;;;25.95;22.10;;;;;;;13.26;95.00;93129.19;521701;28;938;-60
2023/05/16 01:04:48;;;;;;;27.97;21.83;;;;;;;13.28;95.09;93123.06;521710;28;790;-59
2023/05/16 01:05:04;;;;;;;27.20;21.08;;;;;;;13.31;95.43;93125.44;521654;28;806;-60
2023/05/16 01:05:20;;;;;;;25.63;20.77;;;;;;;13.33;95.19;93125.59;521649;28;1480;-59
2023/05/16 01:05:35;;;;;;;23.63;20.70;;;;;;;13.36;95.25;93132.75;523844;28;835;-60
2023/05/16 01:05:50;;;;;;;25.07;21.17;;;;;;;13.34;95.21;93118.72;524824;28;1145;-60
2023/05/16 01:06:06;;;;;;;25.73;20.77;;;;;;;13.42;94.84;93130.47;528483;28;811;-60
2023/05/16 01:06:21;;;;;;;24.67;20.47;;;;;;;13.43;94.96;93131.94;530143;28;804;-60
2023/05/16 01:06:37;;;;;;;23.90;20.83;;;;;;;13.45;94.75;93129.31;530115;28;900;-60
2023/05/16 01:06:52;;;;;;;24.58;21.67;;;;;;;13.47;94.64;93126.69;530089;28;963;-60
2023/05/16 01:07:07;;;;;;;26.07;21.73;;;;;;;13.48;94.61;93127.44;527967;28;788;-60
2023/05/16 01:07:23;;;;;;;25.43;21.07;;;;;;;13.51;94.54;93132.53;527631;28;860;-60
2023/05/16 01:07:38;;;;;;;23.23;20.70;;;;;;;13.51;94.50;93124.22;525816;28;1014;-60
2023/05/16 01:07:54;;;;;;;23.27;20.77;;;;;;;13.51;94.25;93123.50;525869;28;785;-60
2023/05/16 01:08:09;;;;;;;23.90;21.30;;;;;;;13.39;94.30;93126.06;525916;28;824;-60
2023/05/16 01:08:25;;;;;;;28.13;21.83;;;;;;;13.31;94.50;93125.44;525898;28;820;-60
2023/05/16 01:08:40;;;;;;;31.13;22.00;;;;;;;13.25;94.62;93113.16;525828;28;885;-60
2023/05/16 01:08:55;;;;;;;27.35;21.92;;;;;;;13.22;95.09;93115.03;525875;28;876;-60
2023/05/16 01:09:11;;;;;;;27.83;22.30;;;;;;;13.19;95.25;93116.16;525886;28;858;-60
2023/05/16 01:09:27;;;;;;;27.95;22.77;;;;;;;13.25;95.51;93119.44;525946;28;801;-60
2023/05/16 01:09:42;;;;;;;25.77;22.70;;;;;;;13.27;95.54;93122.34;525923;28;840;-59
2023/05/16 01:09:58;;;;;;;29.37;22.70;;;;;;;13.31;95.46;93119.91;525907;28;940;-60
2023/05/16 01:10:14;;;;;;;28.07;22.33;;;;;;;13.33;95.47;93116.53;525931;28;784;-60
2023/05/16 01:10:39;;;;;;;26.38;21.40;;;;;;;13.37;95.35;93114.09;523816;28;924;-60
2023/05/16 01:11:03;;;;;;;28.00;21.70;;;;;;;13.38;95.21;93110.72;523589;28;1930;-60
2023/05/16 01:11:29;;;;;;;26.05;21.13;;;;;;;13.41;95.00;93112.34;524565;28;879;-60
2023/05/16 01:12:25;;;;;;;24.88;21.13;;;;;;;13.44;94.43;93107.72;525703;28;919;-60
2023/05/16 01:12:49;;;;;;;26.67;21.52;;;;;;;13.40;94.44;93110.91;519357;28;1015;-60
2023/05/16 01:13:31;;;;;;;24.60;21.90;;;;;;;13.26;94.34;93090.38;517410;28;832;-60
2023/05/16 01:13:46;;;;;;;26.05;21.92;;;;;;;13.34;94.59;93107.63;521483;28;1624;-59
2023/05/16 01:14:26;;;;;;;25.60;21.97;;;;;;;13.30;94.90;93106.59;523749;28;868;-59
2023/05/16 01:15:13;;;;;;;26.75;22.38;;;;;;;13.25;95.16;93110.38;523679;28;1651;-60
2023/05/16 01:15:34;;;;;;;26.90;22.50;;;;;;;13.28;95.38;93115.50;523723;28;863;-59
2023/05/16 01:15:55;;;;;;;25.95;22.45;;;;;;;13.30;95.48;93112.88;523783;28;847;-59
2023/05/16 01:16:48;;;;;;;25.90;22.55;;;;;;;13.32;95.33;93110.25;523764;28;959;-59
2023/05/16 01:17:10;;;;;;;27.27;23.48;;;;;;;13.35;95.20;93106.34;513276;28;1114;-60
2023/05/16 01:17:37;;;;;;;27.13;23.50;;;;;;;13.31;95.12;93103.25;520732;28;1933;-60
2023/05/16 01:18:04;;;;;;;30.52;24.38;;;;;;;13.24;95.35;93098.53;519609;28;825;-60
2023/05/16 01:18:42;;;;;;;30.38;24.05;;;;;;;13.25;95.42;93086.16;517510;28;1019;-60
2023/05/16 01:19:28;;;;;;;28.65;22.73;;;;;;;13.26;95.44;93095.19;516460;28;848;-60
2023/05/16 01:19:46;;;;;;;27.02;22.45;;;;;;;13.27;95.46;93102.22;518127;28;926;-59